Time;durP1;ratioP1;P1;durP2;ratioP2;P2;SDS_P1;SDS_P2;PMS_P1;PMS_P2;Temp;Humidity;BMP_temperature;BMP_pressure;BME280_temperature;BME280_humidity;BME280_pressure;Samples;Min_cycle;Max_cycle;Signal;HPM_P1;HPM_P2
2023/10/13 00:01:04;;;;;;;11.90;3.05;;;;;;;8.46;100.00;99081.03;5160778;27;20082;-60
2023/10/13 00:03:31;;;;;;;10.32;2.65;;;;;;;8.32;100.00;99067.78;5160366;27;20047;-61
2023/10/13 00:06:00;;;;;;;9.45;2.05;;;;;;;8.44;100.00;99066.94;5160727;27;20066;-54
2023/10/13 00:08:28;;;;;;;16.95;2.22;;;;;;;8.13;100.00;99048.56;5160276;27;20344;-59
2023/10/13 00:10:59;;;;;;;10.88;2.55;;;;;;;8.38;100.00;99013.72;5159993;27;20046;-56
2023/10/13 00:13:26;;;;;;;8.13;1.90;;;;;;;8.30;100.00;99034.59;5160180;27;20050;-56
2023/10/13 00:15:57;;;;;;;11.35;2.00;;;;;;;8.26;100.00;99020.03;5160276;27;20078;-59
2023/10/13 00:18:23;;;;;;;9.15;2.40;;;;;;;8.22;100.00;99030.06;5160252;27;20138;-56
2023/10/13 00:20:50;;;;;;;15.13;2.40;;;;;;;8.31;100.00;99014.31;5160207;27;20046;-61
2023/10/13 00:23:20;;;;;;;18.83;3.10;;;;;;;8.27;100.00;99012.66;5160464;27;20369;-62
2023/10/13 00:25:49;;;;;;;13.07;2.58;;;;;;;8.19;100.00;99006.97;5160051;27;20103;-58
2023/10/13 00:28:23;;;;;;;11.98;2.20;;;;;;;8.31;100.00;99003.38;5160602;27;20130;-58
2023/10/13 00:30:51;;;;;;;8.47;1.90;;;;;;;8.16;100.00;99010.44;5159638;27;20446;-58
2023/10/13 00:33:19;;;;;;;3.10;1.65;;;;;;;8.04;100.00;99007.78;5160469;27;20066;-55
2023/10/13 00:35:47;;;;;;;15.77;2.85;;;;;;;8.22;100.00;98987.16;5159618;27;20047;-58
2023/10/13 00:38:13;;;;;;;13.98;2.35;;;;;;;7.88;100.00;99009.72;5159790;27;20069;-59
2023/10/13 00:40:44;;;;;;;12.75;2.33;;;;;;;8.12;100.00;98978.72;5159745;27;20052;-57
2023/10/13 00:43:34;;;;;;;17.70;2.38;;;;;;;8.21;100.00;98979.34;5159850;27;20050;-57
2023/10/13 00:46:07;;;;;;;8.07;2.25;;;;;;;8.24;100.00;98986.81;5159992;27;20065;-57
2023/10/13 00:48:43;;;;;;;11.75;2.15;;;;;;;8.19;100.00;98984.34;5159611;27;20050;-60
2023/10/13 00:51:18;;;;;;;8.82;2.15;;;;;;;8.25;100.00;98988.41;5160034;27;20400;-55
2023/10/13 00:53:47;;;;;;;12.90;2.63;;;;;;;8.16;100.00;98985.88;5159411;27;20298;-59
2023/10/13 00:56:27;;;;;;;13.05;2.33;;;;;;;8.04;100.00;98975.03;5159685;27;20051;-61
2023/10/13 00:58:53;;;;;;;13.15;2.70;;;;;;;7.95;100.00;98963.50;5159728;27;20410;-54
2023/10/13 01:01:21;;;;;;;16.02;2.13;;;;;;;8.10;100.00;98968.16;5159402;27;20382;-60
2023/10/13 01:03:48;;;;;;;9.90;2.45;;;;;;;8.07;100.00;98968.09;5159790;27;20442;-60
2023/10/13 01:06:16;;;;;;;18.27;2.95;;;;;;;8.07;100.00;98957.16;5159457;27;20054;-55
2023/10/13 01:08:44;;;;;;;11.95;2.80;;;;;;;8.31;100.00;98967.88;5159602;27;20050;-58
2023/10/13 01:11:11;;;;;;;11.70;2.88;;;;;;;8.19;100.00;98996.06;5159237;27;20042;-54
2023/10/13 01:13:37;;;;;;;11.75;2.88;;;;;;;7.95;100.00;99007.94;5159639;27;20396;-53
2023/10/13 01:16:04;;;;;;;12.13;2.03;;;;;;;7.89;100.00;99003.88;5159057;27;20062;-57
2023/10/13 01:18:29;;;;;;;10.77;2.63;;;;;;;7.95;100.00;98997.03;5159608;27;20042;-55
2023/10/13 01:20:58;;;;;;;10.27;2.70;;;;;;;8.05;100.00;98981.28;5159115;27;20050;-55
2023/10/13 01:23:28;;;;;;;17.05;2.75;;;;;;;7.99;100.00;98962.41;5159527;27;20050;-56
2023/10/13 01:25:55;;;;;;;10.18;2.10;;;;;;;7.83;100.00;98983.47;5159256;27;20084;-57
2023/10/13 01:28:21;;;;;;;22.08;3.97;;;;;;;7.92;100.00;98984.09;5159125;27;20051;-57
2023/10/13 01:30:50;;;;;;;13.40;2.60;;;;;;;8.10;100.00;98981.81;5159279;27;20061;-60
2023/10/13 01:33:16;;;;;;;16.50;2.55;;;;;;;8.01;100.00;98973.00;5158975;27;20058;-56
2023/10/13 01:35:47;;;;;;;17.92;2.75;;;;;;;7.88;100.00;98966.81;5159150;27;20447;-55
2023/10/13 01:38:13;;;;;;;9.57;3.30;;;;;;;8.07;100.00;98985.25;5158880;27;20050;-54
2023/10/13 01:40:40;;;;;;;9.40;2.70;;;;;;;7.93;100.00;99002.06;5159159;27;20047;-59
2023/10/13 01:43:10;;;;;;;13.57;2.97;;;;;;;7.84;100.00;98995.97;5157947;27;20402;-59
2023/10/13 01:45:39;;;;;;;13.50;2.25;;;;;;;7.93;100.00;99002.06;5158629;27;20047;-60
2023/10/13 01:48:07;;;;;;;11.70;2.78;;;;;;;7.93;100.00;99007.53;5158984;27;20058;-58
2023/10/13 01:50:36;;;;;;;19.65;3.47;;;;;;;7.91;100.00;99001.63;5158872;27;20050;-60
2023/10/13 01:53:11;;;;;;;11.00;2.67;;;;;;;7.78;100.00;99008.28;5158719;27;20072;-60
2023/10/13 01:55:42;;;;;;;12.18;2.90;;;;;;;7.74;100.00;99004.69;5158635;27;20054;-54
2023/10/13 01:58:14;;;;;;;8.73;2.88;;;;;;;7.89;100.00;99027.66;5158912;27;20109;-59
2023/10/13 02:00:41;;;;;;;16.30;2.70;;;;;;;7.83;100.00;99034.53;5158503;27;20046;-55
2023/10/13 02:03:14;;;;;;;9.95;3.25;;;;;;;7.53;100.00;99024.78;5158901;27;20050;-63
2023/10/13 02:05:43;;;;;;;16.92;2.70;;;;;;;7.53;100.00;99013.88;5158286;27;20357;-54
2023/10/13 02:08:10;;;;;;;9.45;2.20;;;;;;;7.73;100.00;99003.88;5158561;27;20046;-56
2023/10/13 02:10:43;;;;;;;11.70;2.67;;;;;;;7.50;100.00;99006.38;5158523;27;20050;-57
2023/10/13 02:13:17;;;;;;;9.60;3.15;;;;;;;7.41;100.00;99019.38;5158410;27;20082;-59
2023/10/13 02:15:44;;;;;;;12.65;3.13;;;;;;;7.30;100.00;99010.13;5158618;27;20316;-59
2023/10/13 02:18:10;;;;;;;9.95;2.40;;;;;;;7.34;100.00;98989.19;5158155;27;20046;-56
2023/10/13 02:20:43;;;;;;;12.57;2.50;;;;;;;7.53;100.00;98980.31;5158622;27;20311;-58
2023/10/13 02:23:10;;;;;;;15.20;2.88;;;;;;;7.52;100.00;98973.28;5158096;27;20057;-56
2023/10/13 02:25:42;;;;;;;15.27;2.38;;;;;;;7.42;100.00;98993.69;5158606;27;20092;-57
2023/10/13 02:28:09;;;;;;;21.23;3.22;;;;;;;7.46;100.00;98974.69;5158061;27;20047;-56
2023/10/13 02:30:38;;;;;;;17.13;3.38;;;;;;;7.58;100.00;98980.09;5158209;27;20046;-61
2023/10/13 02:33:05;;;;;;;11.05;2.60;;;;;;;7.32;100.00;98989.50;5158450;27;20046;-60
2023/10/13 02:35:50;;;;;;;17.95;3.10;;;;;;;7.50;100.00;98972.88;5158420;27;20046;-57
2023/10/13 02:38:26;;;;;;;14.63;2.42;;;;;;;7.63;100.00;98976.31;5158222;27;20062;-55
2023/10/13 02:40:53;;;;;;;13.55;3.25;;;;;;;7.63;100.00;98993.50;5157945;27;20050;-59
2023/10/13 02:43:21;;;;;;;12.43;2.80;;;;;;;7.69;100.00;99002.97;5158262;27;20050;-55
2023/10/13 02:45:57;;;;;;;12.43;2.95;;;;;;;7.53;100.00;99027.53;5158153;27;20106;-53
2023/10/13 02:48:23;;;;;;;17.20;2.83;;;;;;;7.45;100.00;99016.75;5158365;27;20103;-58
2023/10/13 02:50:57;;;;;;;12.73;2.67;;;;;;;7.65;100.00;99004.03;5157784;27;20050;-57
2023/10/13 02:53:23;;;;;;;15.93;3.10;;;;;;;7.60;100.00;99007.81;5159188;27;20065;-59
2023/10/13 02:55:51;;;;;;;12.32;2.88;;;;;;;7.65;100.00;99014.94;5161703;27;20054;-58
2023/10/13 02:58:17;;;;;;;19.90;3.20;;;;;;;7.83;100.00;98999.03;5161417;27;20053;-55
2023/10/13 03:00:44;;;;;;;12.95;2.33;;;;;;;7.84;100.00;99009.63;5161594;27;20537;-57
2023/10/13 03:03:10;;;;;;;16.90;3.58;;;;;;;7.74;100.00;99027.31;5161296;27;20062;-59
2023/10/13 03:05:38;;;;;;;10.70;2.65;;;;;;;7.78;100.00;99043.75;5161578;27;20047;-58
2023/10/13 03:08:06;;;;;;;14.43;3.05;;;;;;;7.90;100.00;99053.84;5161290;27;20051;-57
2023/10/13 03:10:32;;;;;;;10.90;2.70;;;;;;;8.02;100.00;99057.28;5161664;27;20051;-59
2023/10/13 03:12:59;;;;;;;15.95;3.47;;;;;;;8.05;100.00;99074.09;5161163;27;20061;-60
2023/10/13 03:15:29;;;;;;;14.52;3.05;;;;;;;7.92;100.00;99098.72;5161698;27;20047;-60
2023/10/13 03:17:58;;;;;;;13.00;2.92;;;;;;;7.86;100.00;99105.56;5161084;27;20145;-58
2023/10/13 03:20:31;;;;;;;18.98;2.63;;;;;;;8.09;100.00;99110.47;5161273;27;20058;-58
2023/10/13 03:22:57;;;;;;;12.52;2.60;;;;;;;8.14;100.00;99124.69;5161113;27;20119;-57
2023/10/13 03:25:24;;;;;;;8.50;2.65;;;;;;;7.80;100.00;99139.75;5161161;27;20046;-57
2023/10/13 03:28:01;;;;;;;19.73;3.00;;;;;;;7.86;100.00;99134.81;5161153;27;20054;-57
2023/10/13 03:30:34;;;;;;;14.13;2.85;;;;;;;8.25;100.00;99133.94;5160923;27;20050;-59
2023/10/13 03:33:06;;;;;;;11.43;2.50;;;;;;;8.03;100.00;99156.38;5161279;27;20102;-59
2023/10/13 03:35:37;;;;;;;17.23;2.88;;;;;;;8.21;100.00;99154.13;5160837;27;20043;-59
2023/10/13 03:38:04;;;;;;;17.90;2.80;;;;;;;8.32;100.00;99173.50;5160710;27;20054;-55
2023/10/13 03:40:36;;;;;;;17.98;2.97;;;;;;;7.96;100.00;99188.91;5160668;27;20099;-55
2023/10/13 03:43:04;;;;;;;10.73;2.53;;;;;;;8.11;100.00;99177.25;5160660;27;20450;-57
2023/10/13 03:45:36;;;;;;;13.77;2.63;;;;;;;8.11;100.00;99187.38;5160815;27;20075;-58
2023/10/13 03:48:09;;;;;;;8.25;3.15;;;;;;;7.90;100.00;99202.03;5160755;27;20051;-57
2023/10/13 03:50:36;;;;;;;11.20;2.55;;;;;;;8.10;100.00;99202.19;5160960;27;20042;-59
2023/10/13 03:53:02;;;;;;;10.02;3.55;;;;;;;7.78;100.00;99193.88;5160628;27;20050;-59
2023/10/13 03:55:28;;;;;;;13.82;2.83;;;;;;;8.00;100.00;99185.16;5160934;27;20057;-60
2023/10/13 03:57:54;;;;;;;14.25;3.10;;;;;;;8.00;100.00;99195.28;5160706;27;20062;-60
2023/10/13 04:00:23;;;;;;;17.95;3.30;;;;;;;7.95;100.00;99207.22;5160862;27;20061;-60
2023/10/13 04:02:56;;;;;;;16.75;3.10;;;;;;;7.88;100.00;99206.22;5160372;27;20042;-56
2023/10/13 04:05:38;;;;;;;18.83;3.03;;;;;;;7.79;100.00;99196.22;5159932;27;20120;-56
2023/10/13 04:16:34;;;;;;;18.67;2.70;;;;;;;7.99;100.00;99188.22;5160175;27;20110;-59
2023/10/13 04:19:08;;;;;;;9.32;2.30;;;;;;;8.02;100.00;99203.91;5160323;27;20051;-59
2023/10/13 04:21:42;;;;;;;13.38;3.00;;;;;;;8.02;100.00;99228.47;5160483;27;20054;-57
2023/10/13 04:24:23;;;;;;;11.00;2.97;;;;;;;7.91;100.00;99233.63;5160201;27;20070;-56
2023/10/13 04:27:18;;;;;;;23.75;3.35;;;;;;;7.88;100.00;99233.53;5160365;27;20141;-57
2023/10/13 04:29:52;;;;;;;17.70;3.13;;;;;;;7.97;100.00;99218.59;5159837;27;20050;-60
2023/10/13 04:32:28;;;;;;;17.33;3.20;;;;;;;7.84;100.00;99230.69;5160143;27;20043;-56
2023/10/13 04:34:58;;;;;;;13.63;3.65;;;;;;;7.74;100.00;99229.25;5160146;27;20046;-55
2023/10/13 04:37:29;;;;;;;13.82;3.17;;;;;;;8.08;100.00;99237.22;5159750;27;20051;-60
2023/10/13 04:40:09;;;;;;;19.98;4.10;;;;;;;7.99;100.00;99248.28;5160073;27;20043;-59
2023/10/13 04:42:49;;;;;;;16.40;3.53;;;;;;;8.12;100.00;99257.22;5159635;27;20415;-57
2023/10/13 04:45:38;;;;;;;16.98;4.03;;;;;;;8.18;100.00;99272.25;5159915;27;20380;-60
2023/10/13 04:48:14;;;;;;;12.23;2.90;;;;;;;8.23;100.00;99289.19;5159778;27;20091;-55
2023/10/13 04:50:44;;;;;;;17.98;3.40;;;;;;;8.22;100.00;99300.44;5159418;27;20082;-60
2023/10/13 04:53:27;;;;;;;14.77;3.60;;;;;;;8.29;100.00;99303.38;5159617;27;20134;-64
2023/10/13 04:56:07;;;;;;;17.45;3.22;;;;;;;8.34;100.00;99300.41;5159429;27;20061;-61
2023/10/13 04:59:17;;;;;;;14.70;4.18;;;;;;;8.48;100.00;99314.50;5159791;27;20070;-61
2023/10/13 05:04:57;;;;;;;12.00;3.60;;;;;;;8.46;100.00;99344.13;5158204;27;20415;-61
2023/10/13 05:48:42;;;;;;;9.40;3.65;;;;;;;9.62;100.00;99384.34;5157253;27;20138;-61
2023/10/13 06:29:33;;;;;;;11.27;2.95;;;;;;;14.92;100.00;98310.97;5157596;27;20046;-65
2023/10/13 06:32:01;;;;;;;9.65;3.67;;;;;;;15.16;100.00;98334.72;5157992;27;20046;-62
2023/10/13 06:34:37;;;;;;;15.90;4.70;;;;;;;15.00;100.00;98396.03;5158223;27;20093;-62
2023/10/13 06:37:21;;;;;;;16.73;4.40;;;;;;;15.39;100.00;98372.63;5158015;27;20134;-60
2023/10/13 06:39:47;;;;;;;16.73;3.85;;;;;;;15.62;100.00;98426.38;5157557;27;20046;-62
2023/10/13 06:42:14;;;;;;;11.77;3.90;;;;;;;15.45;100.00;98445.53;5158022;27;20392;-63
2023/10/13 06:44:45;;;;;;;13.52;3.40;;;;;;;15.20;100.00;98484.53;5157513;27;20328;-59
2023/10/13 06:47:11;;;;;;;11.13;3.08;;;;;;;15.28;100.00;98485.22;5157839;27;20062;-62
2023/10/13 06:49:38;;;;;;;15.95;3.15;;;;;;;15.32;100.00;98513.56;5157429;27;20133;-60
2023/10/13 06:52:06;;;;;;;15.50;4.38;;;;;;;14.80;100.00;98503.47;5157618;27;20060;-55
2023/10/13 06:54:33;;;;;;;29.17;11.40;;;;;;;15.27;100.00;98505.75;5157851;27;20324;-56
2023/10/13 06:56:59;;;;;;;14.32;3.78;;;;;;;15.64;100.00;98538.06;5157571;27;20051;-55
2023/10/13 06:59:27;;;;;;;9.52;3.10;;;;;;;15.87;100.00;98562.25;5157653;27;20400;-55
2023/10/13 07:01:53;;;;;;;17.08;3.88;;;;;;;16.05;100.00;98564.78;5157583;27;20123;-53
2023/10/13 07:04:21;;;;;;;18.50;4.53;;;;;;;16.46;100.00;98613.56;5157861;27;20053;-57
2023/10/13 07:06:48;;;;;;;16.25;4.95;;;;;;;16.62;100.00;98637.84;5157389;27;20054;-60
2023/10/13 07:12:01;;;;;;;12.93;3.10;;;;;;;17.27;100.00;98668.13;5157526;27;20107;-55
2023/10/13 07:14:26;;;;;;;12.93;3.58;;;;;;;16.82;100.00;98677.50;5157403;27;20359;-60
2023/10/13 07:16:58;;;;;;;9.43;3.33;;;;;;;16.85;100.00;98671.13;5157311;27;20054;-57
2023/10/13 07:19:27;;;;;;;10.27;2.97;;;;;;;16.76;100.00;98690.28;5157285;27;20132;-61
2023/10/13 07:21:58;;;;;;;8.32;2.95;;;;;;;16.99;100.00;98700.59;5157489;27;20043;-62
2023/10/13 07:24:26;;;;;;;26.50;5.18;;;;;;;16.96;100.00;98695.91;5157392;27;20050;-59
2023/10/13 07:27:01;;;;;;;18.52;2.75;;;;;;;17.07;100.00;98715.91;5157597;27;20054;-55
2023/10/13 07:29:27;;;;;;;5.95;2.83;;;;;;;17.56;100.00;98729.34;5156989;27;20047;-57
2023/10/13 07:31:53;;;;;;;13.45;4.22;;;;;;;17.36;100.00;98726.50;5157355;27;20070;-58
2023/10/13 07:34:26;;;;;;;16.77;3.17;;;;;;;17.16;100.00;98724.47;5156792;27;20134;-60
2023/10/13 07:36:59;;;;;;;12.63;3.70;;;;;;;17.41;100.00;98735.13;5157216;27;20089;-61
2023/10/13 07:39:25;;;;;;;8.68;2.78;;;;;;;17.63;100.00;98741.13;5157051;27;20077;-60
2023/10/13 07:41:54;;;;;;;22.25;4.97;;;;;;;17.35;100.00;98747.13;5160203;27;20332;-58
2023/10/13 07:44:24;;;;;;;18.25;4.22;;;;;;;17.07;100.00;98748.38;5160522;27;20103;-60
2023/10/13 07:46:58;;;;;;;11.73;3.38;;;;;;;16.17;100.00;98732.91;5160473;27;20085;-58
2023/10/13 07:49:25;;;;;;;;;;;;;;;16.09;100.00;98692.69;5161128;27;20339;-60
2023/10/13 07:51:56;;;;;;;13.02;3.72;;;;;;;15.55;100.00;98639.97;5160304;27;19973;-58
2023/10/13 07:54:24;;;;;;;10.32;3.13;;;;;;;15.77;100.00;98682.81;5161053;27;20047;-58
2023/10/13 07:56:50;;;;;;;13.32;3.80;;;;;;;15.48;100.00;98687.78;5159969;27;20053;-55
2023/10/13 07:59:16;;;;;;;12.35;3.55;;;;;;;16.25;100.00;98686.59;5160310;27;20141;-57
2023/10/13 08:01:42;;;;;;;13.18;3.20;;;;;;;16.65;100.00;98722.81;5160060;27;20435;-57
2023/10/13 08:04:11;;;;;;;8.05;3.00;;;;;;;17.46;100.00;98763.56;5160445;27;20046;-57
2023/10/13 08:06:37;;;;;;;23.90;4.70;;;;;;;17.22;100.00;98773.84;5160212;27;20054;-59
2023/10/13 08:09:07;;;;;;;14.90;3.15;;;;;;;18.03;100.00;98799.47;5160145;27;20046;-61
2023/10/13 08:11:34;;;;;;;11.85;3.45;;;;;;;17.90;100.00;98797.72;5160278;27;20079;-58
2023/10/13 08:14:10;;;;;;;22.48;4.22;;;;;;;18.11;100.00;98814.75;5160100;27;20050;-54
2023/10/13 08:16:52;;;;;;;21.92;6.93;;;;;;;17.94;100.00;98779.03;5160310;27;20050;-56
2023/10/13 08:19:20;;;;;;;20.95;5.60;;;;;;;18.17;100.00;98820.59;5159793;27;20057;-58
2023/10/13 08:21:51;;;;;;;13.73;2.92;;;;;;;17.78;100.00;98813.75;5160127;27;20051;-57
2023/10/13 08:24:55;;;;;;;12.63;3.10;;;;;;;17.09;100.00;98812.41;5160166;27;20093;-60
2023/10/13 08:27:33;;;;;;;13.88;3.33;;;;;;;17.87;100.00;98814.00;5159697;27;20055;-64
2023/10/13 08:30:26;;;;;;;;;;;;;;;18.10;100.00;98829.84;5160704;27;20141;-61
2023/10/13 08:32:54;;;;;;;14.27;3.20;;;;;;;18.08;100.00;98829.47;5160070;27;19979;-59
2023/10/13 08:35:33;;;;;;;10.85;3.38;;;;;;;18.32;100.00;98835.75;5159529;27;20071;-62
2023/10/13 08:38:04;;;;;;;12.85;5.05;;;;;;;18.57;100.00;98843.63;5159830;27;20101;-60
2023/10/13 08:43:42;;;;;;;11.70;3.30;;;;;;;18.60;100.00;98855.09;5076223;28;20053;-61
2023/10/13 08:46:09;;;;;;;14.27;3.45;;;;;;;18.31;100.00;98858.41;5148880;27;20046;-62
2023/10/13 08:48:36;;;;;;;9.35;2.45;;;;;;;18.89;100.00;98858.88;5159836;27;20137;-61
2023/10/13 08:51:09;;;;;;;9.32;2.42;;;;;;;18.98;100.00;98859.09;5159180;27;20492;-62
2023/10/13 08:53:45;;;;;;;23.23;6.82;;;;;;;19.17;100.00;98865.06;5159337;27;20137;-62
2023/10/13 08:56:14;;;;;;;9.48;2.85;;;;;;;19.53;100.00;98890.06;5159532;27;20054;-59
2023/10/13 08:59:05;;;;;;;15.10;2.90;;;;;;;18.87;100.00;98888.31;5159262;27;20054;-59
2023/10/13 09:01:39;;;;;;;14.63;5.22;;;;;;;19.41;100.00;98879.59;5159550;27;20051;-61
2023/10/13 09:07:08;;;;;;;9.65;3.10;;;;;;;18.66;100.00;98895.81;5158866;27;20423;-59
2023/10/13 09:09:59;;;;;;;10.68;3.28;;;;;;;18.91;100.00;98889.78;5159311;27;20050;-62
2023/10/13 09:12:35;;;;;;;10.63;2.47;;;;;;;18.40;100.00;98899.47;5159398;27;20046;-58
2023/10/13 09:15:05;;;;;;;17.90;5.82;;;;;;;18.88;100.00;98881.53;5159729;27;20107;-61
2023/10/13 09:17:34;;;;;;;13.30;3.65;;;;;;;18.62;100.00;98883.97;5159024;27;20061;-60
2023/10/13 09:20:23;;;;;;;12.85;3.58;;;;;;;17.68;100.00;98883.97;5159056;27;20054;-59
2023/10/13 09:22:54;;;;;;;10.68;3.05;;;;;;;18.09;100.00;98888.50;5159233;27;20081;-62
2023/10/13 09:25:22;;;;;;;15.77;3.90;;;;;;;17.81;100.00;98882.22;5158835;27;20138;-61
2023/10/13 09:27:51;;;;;;;11.50;2.95;;;;;;;18.37;100.00;98886.44;5149368;27;20051;-60
2023/10/13 09:30:18;;;;;;;14.00;4.03;;;;;;;18.44;100.00;98881.53;5144124;27;20051;-61
2023/10/13 09:32:48;;;;;;;7.55;2.08;;;;;;;18.23;100.00;98895.81;5142569;27;20047;-60
2023/10/13 09:35:18;;;;;;;7.90;2.58;;;;;;;18.47;100.00;98894.56;5158878;27;20116;-60
2023/10/13 09:37:46;;;;;;;15.55;2.85;;;;;;;18.87;100.00;98888.31;5158323;27;20158;-61
2023/10/13 09:40:34;;;;;;;12.27;4.50;;;;;;;18.48;100.00;98900.91;5157015;27;20116;-62
2023/10/13 09:43:05;;;;;;;14.40;4.22;;;;;;;18.98;99.06;98897.97;5153929;27;20054;-61
2023/10/13 09:45:36;;;;;;;11.65;2.22;;;;;;;18.10;100.00;98874.22;5141828;27;20137;-59
2023/10/13 09:48:06;;;;;;;14.27;3.60;;;;;;;17.42;100.00;98880.00;5146965;27;20054;-57
2023/10/13 09:50:37;;;;;;;11.75;3.20;;;;;;;17.05;100.00;98889.22;5153758;27;20047;-61
2023/10/13 09:53:09;;;;;;;13.50;2.78;;;;;;;16.87;100.00;98881.16;5157416;27;20057;-58
2023/10/13 09:55:39;;;;;;;10.73;3.80;;;;;;;16.95;100.00;98890.94;5158329;27;20478;-58
2023/10/13 09:58:10;;;;;;;13.68;2.63;;;;;;;16.74;100.00;98869.00;5155398;27;20054;-59
2023/10/13 10:00:56;;;;;;;12.23;3.40;;;;;;;17.24;100.00;98877.50;5158256;27;20099;-62
2023/10/13 10:03:39;;;;;;;9.30;2.55;;;;;;;17.46;100.00;98888.28;5137719;27;20409;-60
2023/10/13 10:06:08;;;;;;;9.73;2.47;;;;;;;17.35;100.00;98883.66;5145915;27;20046;-62
2023/10/13 10:08:34;;;;;;;11.57;2.72;;;;;;;17.42;100.00;98904.94;5158352;27;20050;-59
2023/10/13 10:11:45;;;;;;;14.02;2.60;;;;;;;17.31;100.00;98899.56;5158049;27;20047;-61
2023/10/13 10:14:17;;;;;;;9.32;2.35;;;;;;;17.24;100.00;98885.03;5062251;28;20190;-61
2023/10/13 10:16:59;;;;;;;8.15;2.33;;;;;;;17.45;100.00;98890.25;5149949;27;20085;-60
2023/10/13 10:19:26;;;;;;;14.63;2.78;;;;;;;17.34;100.00;98884.88;5139839;27;20047;-60
2023/10/13 10:22:04;;;;;;;12.73;2.95;;;;;;;17.09;100.00;98887.19;5137608;28;20142;-56
2023/10/13 10:24:30;;;;;;;17.48;3.17;;;;;;;16.87;100.00;98890.22;5137199;28;20397;-57
2023/10/13 10:26:56;;;;;;;14.27;3.60;;;;;;;15.97;100.00;98856.38;5137471;28;20154;-58
2023/10/13 10:29:22;;;;;;;10.98;3.00;;;;;;;15.34;100.00;98831.56;5137136;28;20051;-58
2023/10/13 10:31:50;;;;;;;12.70;3.03;;;;;;;15.71;100.00;98852.22;5137579;28;20047;-55
2023/10/13 10:34:18;;;;;;;11.82;3.25;;;;;;;15.54;100.00;98851.16;5151040;27;20046;-57
2023/10/13 10:36:47;;;;;;;19.35;5.97;;;;;;;15.36;100.00;98844.94;5157970;27;20336;-60
2023/10/13 10:39:14;;;;;;;12.70;2.97;;;;;;;15.37;100.00;98836.28;5150954;27;20078;-62
2023/10/13 10:41:45;;;;;;;19.95;6.90;;;;;;;15.40;100.00;98842.97;5137169;28;20097;-53
2023/10/13 10:46:57;;;;;;;17.02;2.75;;;;;;;14.95;100.00;98804.19;5138376;27;20053;-60
2023/10/13 10:49:27;;;;;;;14.15;4.55;;;;;;;14.84;100.00;98801.47;5157320;27;20047;-59
2023/10/13 10:52:00;;;;;;;8.00;2.33;;;;;;;14.47;100.00;98771.69;5157598;27;20360;-61
2023/10/13 10:54:31;;;;;;;10.13;2.38;;;;;;;14.78;100.00;98783.78;5151884;27;20108;-61
2023/10/13 10:57:03;;;;;;;10.73;3.80;;;;;;;15.07;100.00;98825.81;5136691;28;20051;-60
2023/10/13 10:59:37;;;;;;;11.20;3.80;;;;;;;14.89;100.00;98828.66;5137028;28;20059;-60
2023/10/13 11:02:04;;;;;;;8.55;2.38;;;;;;;14.77;100.00;98821.63;5137072;28;20146;-61
2023/10/13 11:04:33;;;;;;;9.82;2.13;;;;;;;14.65;100.00;98816.53;5136663;28;20142;-61
2023/10/13 11:07:00;;;;;;;14.23;4.97;;;;;;;14.90;100.00;98816.44;5137004;28;20086;-56
2023/10/13 11:09:36;;;;;;;10.00;2.22;;;;;;;14.99;100.00;98816.75;5136819;28;20187;-58
2023/10/13 11:12:18;;;;;;;7.70;2.13;;;;;;;14.98;100.00;98817.97;5135353;27;20051;-56
2023/10/13 11:14:48;;;;;;;11.65;2.28;;;;;;;15.05;100.00;98814.38;5154973;27;20049;-56
2023/10/13 11:17:24;;;;;;;12.98;3.00;;;;;;;14.94;100.00;98811.69;5145742;27;20047;-60
2023/10/13 11:19:50;;;;;;;21.10;7.13;;;;;;;14.88;100.00;98821.56;5124042;28;20383;-58
2023/10/13 11:22:31;;;;;;;10.80;2.30;;;;;;;14.61;100.00;98807.50;5150693;27;20145;-59
2023/10/13 11:24:59;;;;;;;12.88;3.85;;;;;;;15.04;100.00;98801.78;5160611;27;20335;-55
2023/10/13 11:27:43;;;;;;;8.32;2.47;;;;;;;14.83;100.00;98788.88;5146977;27;20473;-57
2023/10/13 11:30:14;;;;;;;14.45;5.25;;;;;;;14.89;100.00;98778.19;5140108;28;20055;-57
2023/10/13 11:32:41;;;;;;;12.77;3.03;;;;;;;15.03;100.00;98817.56;5140477;28;20047;-60
2023/10/13 11:35:10;;;;;;;21.13;3.08;;;;;;;15.01;100.00;98786.78;5152513;27;20057;-58
2023/10/13 11:37:38;;;;;;;23.58;4.60;;;;;;;14.96;100.00;98790.00;5160777;27;20133;-58
2023/10/13 11:40:12;;;;;;;13.13;3.08;;;;;;;15.01;100.00;98783.25;5160567;27;20141;-59
2023/10/13 11:42:43;;;;;;;9.63;2.60;;;;;;;14.75;100.00;98812.16;5160251;27;20460;-55
2023/10/13 11:45:28;;;;;;;9.82;2.28;;;;;;;14.96;100.00;98809.31;5160867;27;20053;-55
2023/10/13 11:48:00;;;;;;;20.50;4.32;;;;;;;14.86;100.00;98807.41;5160591;27;20069;-58
2023/10/13 11:50:33;;;;;;;13.95;3.55;;;;;;;14.76;100.00;98809.03;5160814;27;20408;-59
2023/10/13 11:52:59;;;;;;;20.08;3.97;;;;;;;14.62;100.00;98794.50;5155619;27;20065;-54
2023/10/13 11:55:24;;;;;;;8.23;2.47;;;;;;;14.62;100.00;98791.72;5144330;27;20055;-60
2023/10/13 11:57:50;;;;;;;13.82;3.13;;;;;;;14.49;100.00;98785.84;5160043;27;20098;-61
2023/10/13 12:00:26;;;;;;;22.67;3.63;;;;;;;14.58;100.00;98789.00;5160715;27;20061;-61
2023/10/13 12:05:59;;;;;;;13.35;3.47;;;;;;;14.36;100.00;98763.41;5159757;27;20368;-59
2023/10/13 12:08:32;;;;;;;11.40;3.03;;;;;;;14.38;100.00;98747.28;5151847;27;20054;-57
2023/10/13 12:11:00;;;;;;;17.38;3.20;;;;;;;14.44;100.00;98762.22;5159106;27;20051;-57
2023/10/13 12:13:26;;;;;;;23.75;7.45;;;;;;;14.41;100.00;98767.75;5160417;27;20043;-58
2023/10/13 12:15:56;;;;;;;18.48;3.75;;;;;;;14.35;100.00;98746.09;5159474;27;20139;-60
2023/10/13 12:18:23;;;;;;;15.90;4.13;;;;;;;14.46;100.00;98732.28;5159913;27;20046;-60
2023/10/13 12:20:49;;;;;;;20.77;6.70;;;;;;;14.38;100.00;98757.53;5158876;27;20125;-59
2023/10/13 12:23:17;;;;;;;18.75;5.00;;;;;;;14.50;100.00;98757.09;5159758;27;20141;-57
2023/10/13 12:25:57;;;;;;;11.05;2.88;;;;;;;14.33;100.00;98747.72;5159685;27;20396;-60
2023/10/13 12:28:26;;;;;;;10.52;3.10;;;;;;;14.70;100.00;98760.97;5159994;27;20077;-61
2023/10/13 12:30:53;;;;;;;16.38;2.80;;;;;;;14.62;100.00;98753.88;5159874;27;20046;-60
2023/10/13 12:33:26;;;;;;;10.32;2.97;;;;;;;14.51;100.00;98742.13;5159525;27;20137;-56
2023/10/13 12:36:27;;;;;;;11.82;2.75;;;;;;;14.59;100.00;98744.47;5160059;27;20062;-61
2023/10/13 12:50:12;;;;;;;16.95;3.83;;;;;;;14.27;100.00;98700.44;5159164;27;20397;-57
2023/10/13 12:52:39;;;;;;;7.55;2.28;;;;;;;14.21;100.00;98687.47;5159702;27;20042;-61
2023/10/13 12:55:09;;;;;;;15.00;2.55;;;;;;;14.18;100.00;98716.63;5159442;27;20138;-61
2023/10/13 12:57:42;;;;;;;12.10;2.50;;;;;;;14.15;100.00;98669.78;5159511;27;20315;-61
2023/10/13 13:00:20;;;;;;;6.10;2.15;;;;;;;14.08;100.00;98684.38;5159361;27;20100;-60
2023/10/13 13:02:46;;;;;;;9.40;2.47;;;;;;;13.41;100.00;98678.66;5159741;27;20054;-58
2023/10/13 13:05:13;;;;;;;8.90;2.72;;;;;;;13.13;100.00;98670.41;5159387;27;20175;-60
2023/10/13 13:07:52;;;;;;;24.15;4.88;;;;;;;13.47;100.00;98659.78;5159418;27;20050;-59
2023/10/13 13:10:18;;;;;;;7.97;2.20;;;;;;;13.42;100.00;98693.22;5159197;27;20426;-62
2023/10/13 13:12:44;;;;;;;14.90;2.88;;;;;;;13.52;100.00;98675.88;5159660;27;20046;-57
2023/10/13 13:15:11;;;;;;;11.30;3.67;;;;;;;13.75;100.00;98686.44;5159336;27;20141;-59
2023/10/13 13:17:38;;;;;;;7.75;2.20;;;;;;;13.58;100.00;98688.06;5159256;27;20043;-60
2023/10/13 13:20:11;;;;;;;18.88;6.47;;;;;;;13.55;100.00;98677.84;5159357;27;20074;-54
2023/10/13 13:22:37;;;;;;;9.45;2.15;;;;;;;13.85;100.00;98709.66;5158959;27;20108;-58
2023/10/13 13:25:08;;;;;;;14.73;2.75;;;;;;;13.58;100.00;98677.06;5159168;27;20552;-60
2023/10/13 13:27:34;;;;;;;13.57;3.42;;;;;;;13.48;100.00;98639.31;5158920;27;20335;-58
2023/10/13 13:30:00;;;;;;;14.80;3.70;;;;;;;13.54;100.00;98661.72;5159282;27;20137;-59
2023/10/13 13:32:28;;;;;;;19.45;4.40;;;;;;;13.67;100.00;98643.59;5159005;27;20051;-59
2023/10/13 13:35:03;;;;;;;18.38;4.72;;;;;;;13.62;100.00;98642.00;5158821;27;20391;-59
2023/10/13 13:37:29;;;;;;;14.45;4.75;;;;;;;13.24;100.00;98616.16;5158065;27;20082;-59